createdAt,value
2022-09-09T00:02:14.114Z,25.13
2022-09-09T00:04:44.163Z,25.15
2022-09-09T00:07:38.678Z,25.17
2022-09-09T00:10:41.826Z,25.18
2022-09-09T00:13:13.491Z,25.20
2022-09-09T00:15:45.760Z,25.23
2022-09-09T00:18:47.142Z,25.24
2022-09-09T00:21:20.022Z,25.25
2022-09-09T00:23:57.459Z,25.27
2022-09-09T00:26:44.787Z,25.30
2022-09-09T00:29:56.304Z,25.34
2022-09-09T00:32:29.792Z,25.35
2022-09-09T00:35:24.799Z,25.38
2022-09-09T00:37:56.930Z,25.39
2022-09-09T00:40:31.785Z,25.42
2022-09-09T00:43:18.782Z,25.43
2022-09-09T00:45:53.328Z,25.45
2022-09-09T00:48:25.139Z,25.47
2022-09-09T00:51:02.246Z,25.48
2022-09-09T00:53:39.443Z,25.48
2022-09-09T00:56:23.761Z,25.51
2022-09-09T00:59:09.185Z,25.52
2022-09-09T01:01:37.689Z,25.54
2022-09-09T01:04:18.127Z,25.55
2022-09-09T01:06:54.328Z,25.57
2022-09-09T01:09:34.834Z,25.57
2022-09-09T01:12:17.091Z,25.58
2022-09-09T01:14:49.860Z,25.61
2022-09-09T01:17:27.692Z,25.63
2022-09-09T01:20:08.283Z,25.65
2022-09-09T01:22:47.503Z,25.65
2022-09-09T01:25:27.844Z,25.66
2022-09-09T01:28:04.204Z,25.68
2022-09-09T01:30:36.024Z,25.67
2022-09-09T01:33:05.934Z,25.69
2022-09-09T01:35:46.984Z,25.70
2022-09-09T01:38:17.259Z,25.71
2022-09-09T01:40:46.375Z,25.72
2022-09-09T01:43:15.771Z,25.74
2022-09-09T01:45:46.669Z,25.76
2022-09-09T01:48:15.222Z,25.79
2022-09-09T01:50:43.891Z,25.85
2022-09-09T01:53:15.173Z,25.89
2022-09-09T01:56:03.389Z,25.93
2022-09-09T01:58:56.152Z,25.98
2022-09-09T02:01:48.606Z,26.03
2022-09-09T02:04:43.083Z,26.08
2022-09-09T02:07:41.871Z,26.12
2022-09-09T02:10:24.020Z,26.14
2022-09-09T02:13:09.349Z,26.16
2022-09-09T02:16:02.521Z,26.16
2022-09-09T02:18:37.680Z,26.18
2022-09-09T02:21:07.856Z,26.21
2022-09-09T02:23:38.504Z,26.20
2022-09-09T02:26:09.860Z,26.22
2022-09-09T02:28:41.420Z,26.22
2022-09-09T02:31:10.168Z,26.23
2022-09-09T02:33:45.283Z,26.23
2022-09-09T02:36:18.345Z,26.23
2022-09-09T02:38:55.244Z,26.25
2022-09-09T02:41:28.648Z,26.27
2022-09-09T02:43:57.237Z,26.28
2022-09-09T02:47:07.343Z,26.28
2022-09-09T02:49:45.523Z,26.29
2022-09-09T02:52:21.032Z,26.31
2022-09-09T02:54:56.577Z,26.30
2022-09-09T02:57:35.817Z,26.32
2022-09-09T03:00:05.576Z,26.32
2022-09-09T03:02:34.184Z,26.31
2022-09-09T03:05:02.871Z,26.31
2022-09-09T03:07:31.380Z,26.30
2022-09-09T03:10:00.338Z,26.28
2022-09-09T03:12:28.964Z,26.25
2022-09-09T03:14:57.472Z,26.23
2022-09-09T03:17:26.907Z,26.22
2022-09-09T03:19:56.552Z,26.20
2022-09-09T03:22:25.114Z,26.18
2022-09-09T03:24:54.432Z,26.16
2022-09-09T03:27:23.180Z,26.15
2022-09-09T03:29:54.341Z,26.13
2022-09-09T03:32:24.550Z,26.11
2022-09-09T03:34:53.065Z,26.11
2022-09-09T03:37:22.262Z,26.09
2022-09-09T03:39:51.197Z,26.09
2022-09-09T03:42:22.722Z,26.06
2022-09-09T03:44:52.396Z,26.05
2022-09-09T03:47:23.712Z,26.04
2022-09-09T03:49:52.278Z,25.99
2022-09-09T03:52:23.869Z,25.95
2022-09-09T03:54:53.647Z,25.87
2022-09-09T03:57:23.759Z,25.81
2022-09-09T03:59:52.284Z,25.76
2022-09-09T04:02:20.946Z,25.71
2022-09-09T04:04:49.638Z,25.68
2022-09-09T04:07:18.137Z,25.67
2022-09-09T04:09:46.674Z,25.67
2022-09-09T04:12:15.308Z,25.69
2022-09-09T04:14:43.806Z,25.69
2022-09-09T04:17:12.390Z,25.70
2022-09-09T04:19:40.927Z,25.70
2022-09-09T04:22:09.602Z,25.70
2022-09-09T04:24:42.049Z,25.71
2022-09-09T04:27:12.073Z,25.72
2022-09-09T04:29:40.708Z,25.74
2022-09-09T04:32:09.114Z,25.75
2022-09-09T04:34:37.531Z,25.80
2022-09-09T04:37:06.086Z,25.83
2022-09-09T04:39:34.682Z,25.87
2022-09-09T04:42:04.068Z,25.90
2022-09-09T04:44:32.575Z,25.94
2022-09-09T04:47:01.061Z,25.97
2022-09-09T04:49:29.606Z,25.98
2022-09-09T04:51:58.402Z,25.99
2022-09-09T04:54:27.479Z,26.01
2022-09-09T04:56:56.965Z,26.05
2022-09-09T04:59:25.673Z,26.09
2022-09-09T05:01:56.598Z,26.12
2022-09-09T05:04:25.100Z,26.17
2022-09-09T05:06:53.509Z,26.21
2022-09-09T05:09:22.065Z,26.25
2022-09-09T05:11:51.085Z,26.27
2022-09-09T05:14:20.106Z,26.31
2022-09-09T05:16:49.260Z,26.37
2022-09-09T05:19:21.156Z,26.40
2022-09-09T05:21:50.371Z,26.45
2022-09-09T05:24:19.236Z,26.47
2022-09-09T05:26:47.811Z,26.50
2022-09-09T05:29:16.331Z,26.52
2022-09-09T05:31:44.888Z,26.54
2022-09-09T05:34:13.838Z,26.54
2022-09-09T05:36:42.407Z,26.55
2022-09-09T05:39:10.883Z,26.57
2022-09-09T05:41:39.418Z,26.56
2022-09-09T05:44:08.276Z,26.57
2022-09-09T05:46:36.974Z,26.56
2022-09-09T05:49:07.585Z,26.57
2022-09-09T05:51:36.540Z,26.59
2022-09-09T05:54:05.186Z,26.58
2022-09-09T05:56:34.501Z,26.58
2022-09-09T05:59:03.383Z,26.60
2022-09-09T06:01:35.180Z,26.61
2022-09-09T06:04:04.366Z,26.63
2022-09-09T06:06:38.732Z,26.62
2022-09-09T06:09:11.706Z,26.63
2022-09-09T06:11:42.089Z,26.65
2022-09-09T06:14:11.169Z,26.65
2022-09-09T06:16:40.195Z,26.63
2022-09-09T06:19:08.946Z,26.65
2022-09-09T06:21:39.353Z,26.64
2022-09-09T06:24:09.444Z,26.61
2022-09-09T06:26:42.642Z,26.57
2022-09-09T06:29:12.034Z,26.53
2022-09-09T06:31:41.083Z,26.52
2022-09-09T06:34:11.605Z,26.48
2022-09-09T06:36:41.823Z,26.45
2022-09-09T06:39:15.026Z,26.44
2022-09-09T06:41:44.606Z,26.42
2022-09-09T06:44:17.383Z,26.39
2022-09-09T06:46:49.899Z,26.34
2022-09-09T06:49:18.456Z,26.28
2022-09-09T06:51:47.171Z,26.21
2022-09-09T06:54:15.719Z,26.10
2022-09-09T06:56:45.626Z,26.03
2022-09-09T06:59:14.779Z,25.94
2022-09-09T07:01:56.011Z,25.87
2022-09-09T07:04:25.154Z,25.78
2022-09-09T07:06:54.486Z,25.75
2022-09-09T07:09:23.708Z,25.72
2022-09-09T07:11:54.870Z,25.70
2022-09-09T07:14:24.107Z,25.71
2022-09-09T07:16:55.364Z,25.71
2022-09-09T07:19:26.037Z,25.72
2022-09-09T07:21:54.630Z,25.73
2022-09-09T07:24:23.287Z,25.75
2022-09-09T07:26:51.903Z,25.78
2022-09-09T07:29:21.105Z,25.82
2022-09-09T07:31:50.398Z,25.85
2022-09-09T07:34:19.072Z,25.86
2022-09-09T07:36:48.757Z,25.89
2022-09-09T07:39:19.361Z,25.90
2022-09-09T07:41:50.106Z,25.94
2022-09-09T07:44:23.453Z,25.95
2022-09-09T07:46:52.189Z,25.96
2022-09-09T07:49:27.074Z,25.99
2022-09-09T07:51:58.589Z,26.03
2022-09-09T07:54:28.277Z,26.06
2022-09-09T07:56:56.845Z,26.11
2022-09-09T07:59:26.298Z,26.14
2022-09-09T08:01:57.961Z,26.19
2022-09-09T08:04:28.230Z,26.24
2022-09-09T08:06:59.761Z,26.25
2022-09-09T08:09:30.861Z,26.26
2022-09-09T08:12:00.325Z,26.23
2022-09-09T08:14:28.962Z,26.21
2022-09-09T08:16:58.258Z,26.15
2022-09-09T08:19:26.992Z,26.12
2022-09-09T08:21:56.149Z,26.05
2022-09-09T08:24:25.323Z,26.01
2022-09-09T08:26:53.927Z,25.95
2022-09-09T08:29:22.512Z,25.89
2022-09-09T08:31:56.633Z,25.84
2022-09-09T08:34:27.735Z,25.79
2022-09-09T08:36:56.812Z,25.75
2022-09-09T08:39:25.286Z,25.71
2022-09-09T08:42:05.074Z,25.67
2022-09-09T08:44:56.451Z,25.66
2022-09-09T08:47:49.665Z,25.64
2022-09-09T08:50:40.590Z,25.63
2022-09-09T08:53:12.614Z,25.61
2022-09-09T08:55:47.367Z,25.60
2022-09-09T08:58:20.100Z,25.60
2022-09-09T09:00:57.399Z,25.59
2022-09-09T09:03:41.530Z,25.60
2022-09-09T09:06:25.899Z,25.61
2022-09-09T09:08:57.566Z,25.63
2022-09-09T09:11:26.361Z,25.65
2022-09-09T09:14:05.185Z,25.67
2022-09-09T09:16:53.198Z,25.69
2022-09-09T09:19:25.134Z,25.71
2022-09-09T09:22:09.310Z,25.73
2022-09-09T09:24:56.175Z,25.75
2022-09-09T09:27:33.948Z,25.76
2022-09-09T09:30:24.261Z,25.77
2022-09-09T09:33:08.332Z,25.80
2022-09-09T09:35:41.677Z,25.81
2022-09-09T09:41:12.797Z,25.82
2022-09-09T09:43:46.571Z,25.82
2022-09-09T09:46:28.370Z,25.83
2022-09-09T09:49:15.839Z,25.84
2022-09-09T09:51:44.555Z,25.85
2022-09-09T09:54:16.081Z,25.85
2022-09-09T09:56:46.194Z,25.87
2022-09-09T09:59:46.136Z,25.87
2022-09-09T10:02:29.235Z,25.89
2022-09-09T10:05:32.627Z,25.90
2022-09-09T10:08:05.507Z,25.89
2022-09-09T10:10:48.032Z,25.89
2022-09-09T10:13:29.181Z,25.89
2022-09-09T10:16:09.692Z,25.91
2022-09-09T10:18:59.520Z,25.90
2022-09-09T10:21:46.968Z,25.93
2022-09-09T10:24:33.480Z,25.94
2022-09-09T10:27:18.833Z,25.95
2022-09-09T10:29:57.403Z,25.97
2022-09-09T10:32:29.247Z,25.98
2022-09-09T10:35:22.169Z,26.00
2022-09-09T10:38:35.306Z,26.02
2022-09-09T10:41:19.061Z,26.03
2022-09-09T10:44:21.114Z,26.04
2022-09-09T10:47:28.133Z,26.02
2022-09-09T10:49:59.856Z,26.03
2022-09-09T10:52:36.777Z,26.03
2022-09-09T10:55:30.163Z,26.03
2022-09-09T10:58:05.044Z,26.02
2022-09-09T11:00:41.684Z,26.01
2022-09-09T11:03:24.493Z,26.01
2022-09-09T11:06:02.232Z,26.01
2022-09-09T11:08:34.270Z,25.99
2022-09-09T11:11:28.529Z,25.99
2022-09-09T11:14:04.225Z,25.97
2022-09-09T11:16:47.152Z,25.96
2022-09-09T11:19:32.458Z,25.94
2022-09-09T11:22:04.594Z,25.93
2022-09-09T11:24:40.465Z,25.93
2022-09-09T11:27:21.328Z,25.90
2022-09-09T11:30:04.737Z,25.89
2022-09-09T11:32:56.968Z,25.88
2022-09-09T11:36:07.271Z,25.88
2022-09-09T11:38:42.609Z,25.87
2022-09-09T11:41:12.224Z,25.85
2022-09-09T11:43:55.127Z,25.84
2022-09-09T11:46:35.746Z,25.82
2022-09-09T11:49:07.489Z,25.78
2022-09-09T11:51:37.443Z,25.76
2022-09-09T11:54:41.423Z,25.77
2022-09-09T11:57:32.819Z,25.75
2022-09-09T12:00:04.751Z,25.74
2022-09-09T12:02:34.028Z,25.75
2022-09-09T12:05:10.670Z,25.75
2022-09-09T12:07:45.018Z,25.75
2022-09-09T12:10:42.190Z,25.76
2022-09-09T12:13:24.839Z,25.76
2022-09-09T12:15:56.203Z,25.76
2022-09-09T12:18:33.967Z,25.77
2022-09-09T12:21:47.134Z,25.77
2022-09-09T12:24:34.475Z,25.78
2022-09-09T12:27:27.911Z,25.79
2022-09-09T12:30:11.932Z,25.81
2022-09-09T12:32:41.366Z,25.82
2022-09-09T12:35:30.403Z,25.83
2022-09-09T12:38:02.496Z,25.84
2022-09-09T12:40:34.470Z,25.86
2022-09-09T12:43:04.016Z,25.87
2022-09-09T12:45:35.141Z,25.87
2022-09-09T12:48:08.574Z,25.88
2022-09-09T12:50:48.154Z,25.87
2022-09-09T12:53:29.165Z,25.88
2022-09-09T12:56:06.798Z,25.89
2022-09-09T12:58:36.821Z,25.90
2022-09-09T13:01:07.589Z,25.90
2022-09-09T13:03:49.305Z,25.90
2022-09-09T13:06:36.733Z,25.90
2022-09-09T13:09:05.945Z,25.91
2022-09-09T13:11:51.675Z,25.92
2022-09-09T13:14:32.886Z,25.92
2022-09-09T13:17:05.499Z,25.92
2022-09-09T13:19:39.909Z,25.94
2022-09-09T13:22:25.130Z,25.95
2022-09-09T13:25:29.670Z,25.96
2022-09-09T13:28:06.481Z,25.97
2022-09-09T13:30:44.947Z,25.98
2022-09-09T13:33:25.252Z,25.99
2022-09-09T13:36:01.213Z,26.01
2022-09-09T13:38:33.157Z,26.02
2022-09-09T13:41:07.192Z,26.03
2022-09-09T13:44:02.863Z,26.06
2022-09-09T13:46:36.690Z,26.06
2022-09-09T13:49:25.805Z,26.06
2022-09-09T13:52:05.385Z,26.08
2022-09-09T13:54:33.981Z,26.07
2022-09-09T13:57:03.596Z,26.09
2022-09-09T14:00:01.205Z,26.09
2022-09-09T14:02:21.545Z,26.09
2022-09-09T14:04:52.792Z,26.09
2022-09-09T14:07:21.589Z,26.10
2022-09-09T14:09:53.871Z,26.10
2022-09-09T14:12:22.437Z,26.10
2022-09-09T14:14:51.753Z,26.10
2022-09-09T14:17:20.239Z,26.10
2022-09-09T14:19:48.740Z,26.10
2022-09-09T14:22:18.274Z,26.11
2022-09-09T14:24:47.583Z,26.11
2022-09-09T14:27:16.184Z,26.11
2022-09-09T14:29:46.328Z,26.11
2022-09-09T14:32:15.127Z,26.10
2022-09-09T14:34:43.700Z,26.10
2022-09-09T14:37:12.375Z,26.10
2022-09-09T14:39:41.005Z,26.12
2022-09-09T14:42:09.979Z,26.11
2022-09-09T14:44:39.597Z,26.12
2022-09-09T14:47:10.057Z,26.11
2022-09-09T14:49:40.694Z,26.11
2022-09-09T14:52:11.388Z,26.10
2022-09-09T14:54:39.944Z,26.11
2022-09-09T14:57:08.440Z,26.12
2022-09-09T14:59:37.185Z,26.12
2022-09-09T15:02:06.577Z,26.12
2022-09-09T15:04:35.185Z,26.12
2022-09-09T15:07:03.793Z,26.14
2022-09-09T15:09:32.442Z,26.12
2022-09-09T15:12:01.296Z,26.13
2022-09-09T15:14:29.923Z,26.13
2022-09-09T15:16:58.599Z,26.14
2022-09-09T15:19:27.141Z,26.14
2022-09-09T15:21:56.729Z,26.14
2022-09-09T15:24:25.166Z,26.11
2022-09-09T15:26:53.668Z,26.11
2022-09-09T15:29:22.350Z,26.10
2022-09-09T15:31:50.950Z,26.10
2022-09-09T15:34:19.500Z,26.08
2022-09-09T15:36:48.343Z,26.07
2022-09-09T15:39:20.910Z,26.07
2022-09-09T15:41:50.654Z,26.07
2022-09-09T15:44:21.007Z,26.07
2022-09-09T15:46:52.503Z,26.07
2022-09-09T15:49:32.494Z,26.07
2022-09-09T15:52:05.369Z,26.07
2022-09-09T15:54:36.487Z,26.06
2022-09-09T15:57:07.029Z,26.06
2022-09-09T15:59:36.183Z,26.04
2022-09-09T16:02:05.380Z,26.02
2022-09-09T16:04:33.978Z,26.00
2022-09-09T16:07:07.390Z,25.98
2022-09-09T16:09:37.186Z,25.97
2022-09-09T16:12:11.785Z,25.95
2022-09-09T16:14:40.843Z,25.95
2022-09-09T16:17:09.291Z,25.93
2022-09-09T16:19:37.976Z,25.92
2022-09-09T16:22:08.581Z,25.92
2022-09-09T16:24:37.207Z,25.91
2022-09-09T16:27:05.992Z,25.88
2022-09-09T16:29:34.547Z,25.86
2022-09-09T16:32:04.406Z,25.84
2022-09-09T16:34:34.855Z,25.81
2022-09-09T16:37:04.077Z,25.78
2022-09-09T16:39:32.690Z,25.75
2022-09-09T16:42:01.848Z,25.73
2022-09-09T16:44:30.422Z,25.71
2022-09-09T16:47:00.946Z,25.70
2022-09-09T16:49:32.984Z,25.68
2022-09-09T16:52:02.138Z,25.68
2022-09-09T16:54:31.069Z,25.68
2022-09-09T16:56:59.819Z,25.68
2022-09-09T16:59:28.599Z,25.67
2022-09-09T17:01:57.589Z,25.67
2022-09-09T17:04:29.875Z,25.67
2022-09-09T17:06:59.410Z,25.67
2022-09-09T17:09:31.076Z,25.66
2022-09-09T17:12:00.463Z,25.67
2022-09-09T17:14:29.257Z,25.66
2022-09-09T17:17:05.470Z,25.67
2022-09-09T17:19:46.299Z,25.66
2022-09-09T17:22:17.216Z,25.66
2022-09-09T17:24:47.400Z,25.67
2022-09-09T17:27:16.180Z,25.66
2022-09-09T17:29:44.987Z,25.67
2022-09-09T17:32:13.664Z,25.67
2022-09-09T17:34:42.192Z,25.68
2022-09-09T17:37:10.776Z,25.69
2022-09-09T17:39:39.395Z,25.70
2022-09-09T17:42:09.536Z,25.69
2022-09-09T17:44:38.056Z,25.70
2022-09-09T17:47:08.101Z,25.68
2022-09-09T17:49:36.664Z,25.69
2022-09-09T17:52:05.433Z,25.68
2022-09-09T17:54:35.899Z,25.68
2022-09-09T17:57:04.454Z,25.68
2022-09-09T17:59:33.211Z,25.67
2022-09-09T18:02:01.792Z,25.68
2022-09-09T18:04:30.441Z,25.67
2022-09-09T18:06:59.347Z,25.67
2022-09-09T18:09:29.156Z,25.70
2022-09-09T18:12:00.233Z,25.69
2022-09-09T18:14:32.382Z,25.70
2022-09-09T18:17:02.611Z,25.70
2022-09-09T18:19:33.932Z,25.72
2022-09-09T18:22:05.048Z,25.72
2022-09-09T18:24:34.382Z,25.73
2022-09-09T18:27:03.140Z,25.75
2022-09-09T18:29:32.294Z,25.75
2022-09-09T18:32:00.897Z,25.76
2022-09-09T18:34:31.245Z,25.75
2022-09-09T18:36:59.887Z,25.76
2022-09-09T18:39:30.859Z,25.76
2022-09-09T18:42:02.411Z,25.75
2022-09-09T18:44:34.210Z,25.77
2022-09-09T18:47:04.669Z,25.76
2022-09-09T18:49:34.365Z,25.76
2022-09-09T18:52:04.438Z,25.77
2022-09-09T18:54:35.376Z,25.76
2022-09-09T18:57:04.150Z,25.76
2022-09-09T18:59:33.008Z,25.75
2022-09-09T19:02:01.759Z,25.75
2022-09-09T19:04:30.598Z,25.75
2022-09-09T19:06:59.192Z,25.74
2022-09-09T19:09:32.220Z,25.73
2022-09-09T19:12:03.905Z,25.72
2022-09-09T19:14:32.806Z,25.72
2022-09-09T19:17:01.548Z,25.72
2022-09-09T19:19:33.001Z,25.72
2022-09-09T19:22:03.225Z,25.72
2022-09-09T19:24:34.204Z,25.73
2022-09-09T19:27:07.694Z,25.73
2022-09-09T19:29:40.536Z,25.73
2022-09-09T19:34:58.230Z,25.72
2022-09-09T19:37:26.894Z,25.72
2022-09-09T19:39:55.473Z,25.73
2022-09-09T19:42:24.063Z,25.73
2022-09-09T19:44:52.622Z,25.73
2022-09-09T19:47:21.208Z,25.72
2022-09-09T19:49:51.498Z,25.72
2022-09-09T19:52:20.677Z,25.70
2022-09-09T19:54:49.176Z,25.72
2022-09-09T19:57:17.671Z,25.72
2022-09-09T19:59:46.207Z,25.72
2022-09-09T20:02:16.600Z,25.72
2022-09-09T20:04:47.725Z,25.72
2022-09-09T20:07:16.194Z,25.73
2022-09-09T20:09:44.796Z,25.73
2022-09-09T20:12:13.315Z,25.72
2022-09-09T20:14:41.851Z,25.70
2022-09-09T20:17:11.184Z,25.70
2022-09-09T20:19:40.824Z,25.68
2022-09-09T20:22:09.541Z,25.68
2022-09-09T20:24:38.125Z,25.68
2022-09-09T20:27:08.085Z,25.67
2022-09-09T20:29:37.378Z,25.68
2022-09-09T20:32:06.926Z,25.68
2022-09-09T20:34:35.647Z,25.67
2022-09-09T20:37:04.203Z,25.68
2022-09-09T20:39:33.103Z,25.67
2022-09-09T20:42:02.364Z,25.67
2022-09-09T20:44:30.901Z,25.67
2022-09-09T20:47:01.557Z,25.68
2022-09-09T20:49:31.360Z,25.67
2022-09-09T20:52:00.008Z,25.67
2022-09-09T20:54:33.621Z,25.66
2022-09-09T20:57:02.158Z,25.65
2022-09-09T20:59:35.792Z,25.66
2022-09-09T21:02:04.623Z,25.66
2022-09-09T21:04:33.234Z,25.66
2022-09-09T21:07:01.827Z,25.67
2022-09-09T21:09:30.294Z,25.67
2022-09-09T21:11:58.797Z,25.66
2022-09-09T21:14:28.549Z,25.66
2022-09-09T21:16:57.132Z,25.66
2022-09-09T21:19:26.178Z,25.66
2022-09-09T21:21:54.769Z,25.65
2022-09-09T21:24:23.841Z,25.65
2022-09-09T21:26:52.285Z,25.66
2022-09-09T21:29:20.833Z,25.65
2022-09-09T21:31:49.467Z,25.64
2022-09-09T21:34:19.530Z,25.65
2022-09-09T21:36:48.038Z,25.64
2022-09-09T21:39:16.895Z,25.64
2022-09-09T21:41:45.380Z,25.64
2022-09-09T21:44:15.405Z,25.65
2022-09-09T21:46:45.029Z,25.64
2022-09-09T21:49:13.865Z,25.64
2022-09-09T21:51:42.452Z,25.66
2022-09-09T21:54:11.146Z,25.66
2022-09-09T21:56:40.627Z,25.66
2022-09-09T21:59:09.229Z,25.64
2022-09-09T22:01:37.764Z,25.64
2022-09-09T22:04:06.382Z,25.64
2022-09-09T22:06:35.288Z,25.63
2022-09-09T22:09:04.574Z,25.64
2022-09-09T22:11:33.141Z,25.66
2022-09-09T22:14:03.396Z,25.66
2022-09-09T22:16:32.880Z,25.66
2022-09-09T22:19:02.316Z,25.66
2022-09-09T22:21:34.080Z,25.65
2022-09-09T22:24:06.455Z,25.66
2022-09-09T22:26:38.036Z,25.66
2022-09-09T22:29:07.775Z,25.65
2022-09-09T22:31:37.341Z,25.65
2022-09-09T22:34:07.838Z,25.66
2022-09-09T22:36:36.413Z,25.67
2022-09-09T22:39:06.003Z,25.66
2022-09-09T22:41:34.951Z,25.67
2022-09-09T22:44:03.708Z,25.68
2022-09-09T22:46:32.599Z,25.69
2022-09-09T22:49:04.209Z,25.67
2022-09-09T22:51:36.012Z,25.67
2022-09-09T22:54:06.545Z,25.68
2022-09-09T22:56:35.624Z,25.70
2022-09-09T22:59:04.647Z,25.68
2022-09-09T23:01:33.964Z,25.67
2022-09-09T23:04:03.776Z,25.68
2022-09-09T23:06:32.797Z,25.68
2022-09-09T23:09:03.531Z,25.68
2022-09-09T23:11:35.195Z,25.69
2022-09-09T23:14:06.443Z,25.67
2022-09-09T23:16:40.713Z,25.66
2022-09-09T23:19:11.927Z,25.68
2022-09-09T23:21:41.607Z,25.69
2022-09-09T23:24:13.359Z,25.69
2022-09-09T23:26:44.489Z,25.70
2022-09-09T23:29:15.258Z,25.71
2022-09-09T23:31:46.503Z,25.71
2022-09-09T23:34:15.505Z,25.72
2022-09-09T23:36:44.171Z,25.73
2022-09-09T23:39:14.360Z,25.75
2022-09-09T23:41:43.267Z,25.76
2022-09-09T23:44:13.791Z,25.78
2022-09-09T23:46:42.617Z,25.79
2022-09-09T23:49:12.195Z,25.80
2022-09-09T23:51:40.968Z,25.82
2022-09-09T23:54:11.053Z,25.83
2022-09-09T23:56:42.454Z,25.84
2022-09-09T23:59:11.434Z,25.84
